sensor_id;sensor_type;location;lat;lon;timestamp;P1;durP1;ratioP1;P2;durP2;ratioP2
253;SDS011;590;48.772;8.846;2022-12-18T00:00:03;22.20;;;21.10;;
253;SDS011;590;48.772;8.846;2022-12-18T00:02:34;22.87;;;21.77;;
253;SDS011;590;48.772;8.846;2022-12-18T00:05:02;21.47;;;20.37;;
253;SDS011;590;48.772;8.846;2022-12-18T00:07:31;22.37;;;21.27;;
253;SDS011;590;48.772;8.846;2022-12-18T00:09:59;22.20;;;21.10;;
253;SDS011;590;48.772;8.846;2022-12-18T00:12:27;20.57;;;19.57;;
253;SDS011;590;48.772;8.846;2022-12-18T00:14:56;21.70;;;20.60;;
253;SDS011;590;48.772;8.846;2022-12-18T00:17:24;21.50;;;20.40;;
253;SDS011;590;48.772;8.846;2022-12-18T00:19:54;22.13;;;21.03;;
253;SDS011;590;48.772;8.846;2022-12-18T00:22:22;22.63;;;21.53;;
253;SDS011;590;48.772;8.846;2022-12-18T00:24:50;22.30;;;21.20;;
253;SDS011;590;48.772;8.846;2022-12-18T00:27:18;23.40;;;22.20;;
253;SDS011;590;48.772;8.846;2022-12-18T00:29:46;21.83;;;20.73;;
253;SDS011;590;48.772;8.846;2022-12-18T00:32:15;22.03;;;20.93;;
253;SDS011;590;48.772;8.846;2022-12-18T00:34:43;20.37;;;19.37;;
253;SDS011;590;48.772;8.846;2022-12-18T00:37:12;23.27;;;22.07;;
253;SDS011;590;48.772;8.846;2022-12-18T00:39:45;21.53;;;20.43;;
253;SDS011;590;48.772;8.846;2022-12-18T00:42:15;22.00;;;20.90;;
253;SDS011;590;48.772;8.846;2022-12-18T00:45:01;22.83;;;21.73;;
253;SDS011;590;48.772;8.846;2022-12-18T00:47:37;22.13;;;21.03;;
253;SDS011;590;48.772;8.846;2022-12-18T00:50:06;22.70;;;21.60;;
253;SDS011;590;48.772;8.846;2022-12-18T00:52:36;20.50;;;19.50;;
253;SDS011;590;48.772;8.846;2022-12-18T00:55:04;22.60;;;21.50;;
253;SDS011;590;48.772;8.846;2022-12-18T00:57:33;21.07;;;20.00;;
253;SDS011;590;48.772;8.846;2022-12-18T01:00:01;21.90;;;20.80;;
253;SDS011;590;48.772;8.846;2022-12-18T01:02:30;21.57;;;20.47;;
253;SDS011;590;48.772;8.846;2022-12-18T01:04:58;20.63;;;19.63;;
253;SDS011;590;48.772;8.846;2022-12-18T01:07:26;22.33;;;21.23;;
253;SDS011;590;48.772;8.846;2022-12-18T01:09:55;22.53;;;21.43;;
253;SDS011;590;48.772;8.846;2022-12-18T01:12:23;21.20;;;20.10;;
253;SDS011;590;48.772;8.846;2022-12-18T01:14:51;22.43;;;21.33;;
253;SDS011;590;48.772;8.846;2022-12-18T01:17:19;21.57;;;20.47;;
253;SDS011;590;48.772;8.846;2022-12-18T01:19:47;22.73;;;21.63;;
253;SDS011;590;48.772;8.846;2022-12-18T01:22:15;21.20;;;20.10;;
253;SDS011;590;48.772;8.846;2022-12-18T01:24:43;22.47;;;21.37;;
253;SDS011;590;48.772;8.846;2022-12-18T01:27:13;22.07;;;20.97;;
253;SDS011;590;48.772;8.846;2022-12-18T01:29:41;20.60;;;19.60;;
253;SDS011;590;48.772;8.846;2022-12-18T01:32:09;22.57;;;21.47;;
253;SDS011;590;48.772;8.846;2022-12-18T01:34:37;21.23;;;20.13;;
253;SDS011;590;48.772;8.846;2022-12-18T01:37:05;20.90;;;19.90;;
253;SDS011;590;48.772;8.846;2022-12-18T01:39:33;21.90;;;20.80;;
253;SDS011;590;48.772;8.846;2022-12-18T01:42:02;20.50;;;19.50;;
253;SDS011;590;48.772;8.846;2022-12-18T01:47:28;21.57;;;20.47;;
253;SDS011;590;48.772;8.846;2022-12-18T01:49:59;20.43;;;19.43;;
253;SDS011;590;48.772;8.846;2022-12-18T01:52:31;20.90;;;19.90;;
253;SDS011;590;48.772;8.846;2022-12-18T01:55:00;20.43;;;19.43;;
253;SDS011;590;48.772;8.846;2022-12-18T01:57:30;21.20;;;20.13;;
253;SDS011;590;48.772;8.846;2022-12-18T02:00:02;21.23;;;20.13;;
253;SDS011;590;48.772;8.846;2022-12-18T02:02:32;21.23;;;20.13;;
253;SDS011;590;48.772;8.846;2022-12-18T02:05:00;20.17;;;19.17;;
253;SDS011;590;48.772;8.846;2022-12-18T02:07:34;22.07;;;20.97;;
253;SDS011;590;48.772;8.846;2022-12-18T02:10:10;20.70;;;19.70;;
253;SDS011;590;48.772;8.846;2022-12-18T02:12:45;20.60;;;19.60;;
253;SDS011;590;48.772;8.846;2022-12-18T02:15:19;20.90;;;19.90;;
253;SDS011;590;48.772;8.846;2022-12-18T02:17:54;20.93;;;19.90;;
253;SDS011;590;48.772;8.846;2022-12-18T02:20:27;21.83;;;20.73;;
253;SDS011;590;48.772;8.846;2022-12-18T02:23:01;21.07;;;20.00;;
253;SDS011;590;48.772;8.846;2022-12-18T02:25:42;20.00;;;19.00;;
253;SDS011;590;48.772;8.846;2022-12-18T02:28:34;19.80;;;18.80;;
253;SDS011;590;48.772;8.846;2022-12-18T02:31:07;19.03;;;18.03;;
253;SDS011;590;48.772;8.846;2022-12-18T02:33:40;20.80;;;19.80;;
253;SDS011;590;48.772;8.846;2022-12-18T02:36:10;19.93;;;18.93;;
253;SDS011;590;48.772;8.846;2022-12-18T02:38:41;21.60;;;20.50;;
253;SDS011;590;48.772;8.846;2022-12-18T02:41:12;19.17;;;18.17;;
253;SDS011;590;48.772;8.846;2022-12-18T02:43:45;19.33;;;18.33;;
253;SDS011;590;48.772;8.846;2022-12-18T02:46:25;19.13;;;18.13;;
253;SDS011;590;48.772;8.846;2022-12-18T02:49:01;20.03;;;19.03;;
253;SDS011;590;48.772;8.846;2022-12-18T02:51:39;19.77;;;18.77;;
253;SDS011;590;48.772;8.846;2022-12-18T02:54:16;19.60;;;18.60;;
253;SDS011;590;48.772;8.846;2022-12-18T02:56:55;20.10;;;19.10;;
253;SDS011;590;48.772;8.846;2022-12-18T02:59:29;18.57;;;17.67;;
253;SDS011;590;48.772;8.846;2022-12-18T03:02:02;18.57;;;17.67;;
253;SDS011;590;48.772;8.846;2022-12-18T03:04:38;17.50;;;16.60;;
253;SDS011;590;48.772;8.846;2022-12-18T03:07:11;18.77;;;17.87;;
253;SDS011;590;48.772;8.846;2022-12-18T03:09:45;17.90;;;17.00;;
253;SDS011;590;48.772;8.846;2022-12-18T03:12:19;18.63;;;17.73;;
253;SDS011;590;48.772;8.846;2022-12-18T03:14:53;17.87;;;16.97;;
253;SDS011;590;48.772;8.846;2022-12-18T03:17:26;17.93;;;17.03;;
253;SDS011;590;48.772;8.846;2022-12-18T03:19:56;18.23;;;17.33;;
253;SDS011;590;48.772;8.846;2022-12-18T03:22:27;18.50;;;17.60;;
253;SDS011;590;48.772;8.846;2022-12-18T03:24:59;18.47;;;17.57;;
253;SDS011;590;48.772;8.846;2022-12-18T03:27:30;18.73;;;17.83;;
253;SDS011;590;48.772;8.846;2022-12-18T03:30:02;17.23;;;16.33;;
253;SDS011;590;48.772;8.846;2022-12-18T03:32:35;19.43;;;18.43;;
253;SDS011;590;48.772;8.846;2022-12-18T03:35:07;18.67;;;17.77;;
253;SDS011;590;48.772;8.846;2022-12-18T03:37:37;17.53;;;16.63;;
253;SDS011;590;48.772;8.846;2022-12-18T03:40:06;19.17;;;18.17;;
253;SDS011;590;48.772;8.846;2022-12-18T03:42:39;19.20;;;18.20;;
253;SDS011;590;48.772;8.846;2022-12-18T03:45:18;17.50;;;16.60;;
253;SDS011;590;48.772;8.846;2022-12-18T03:47:53;17.10;;;16.20;;
253;SDS011;590;48.772;8.846;2022-12-18T03:50:29;17.67;;;16.77;;
253;SDS011;590;48.772;8.846;2022-12-18T03:53:06;17.50;;;16.60;;
253;SDS011;590;48.772;8.846;2022-12-18T03:55:41;17.90;;;17.00;;
253;SDS011;590;48.772;8.846;2022-12-18T03:58:12;16.63;;;15.80;;
253;SDS011;590;48.772;8.846;2022-12-18T04:00:43;17.93;;;17.03;;
253;SDS011;590;48.772;8.846;2022-12-18T04:03:12;18.33;;;17.43;;
253;SDS011;590;48.772;8.846;2022-12-18T04:05:42;17.80;;;16.90;;
253;SDS011;590;48.772;8.846;2022-12-18T04:08:11;17.03;;;16.13;;
253;SDS011;590;48.772;8.846;2022-12-18T04:10:40;18.10;;;17.20;;
253;SDS011;590;48.772;8.846;2022-12-18T04:13:08;17.30;;;16.40;;
253;SDS011;590;48.772;8.846;2022-12-18T04:15:38;16.97;;;16.10;;
253;SDS011;590;48.772;8.846;2022-12-18T04:18:07;17.17;;;16.27;;
253;SDS011;590;48.772;8.846;2022-12-18T04:20:35;16.87;;;16.00;;
253;SDS011;590;48.772;8.846;2022-12-18T04:23:03;16.20;;;15.40;;
253;SDS011;590;48.772;8.846;2022-12-18T04:25:31;16.07;;;15.27;;
253;SDS011;590;48.772;8.846;2022-12-18T04:27:59;15.67;;;14.87;;
253;SDS011;590;48.772;8.846;2022-12-18T04:30:27;15.90;;;15.10;;
253;SDS011;590;48.772;8.846;2022-12-18T04:32:56;16.70;;;15.90;;
253;SDS011;590;48.772;8.846;2022-12-18T04:35:24;15.70;;;14.90;;
253;SDS011;590;48.772;8.846;2022-12-18T04:37:52;16.10;;;15.30;;
253;SDS011;590;48.772;8.846;2022-12-18T04:40:20;15.83;;;15.03;;
253;SDS011;590;48.772;8.846;2022-12-18T04:42:48;16.50;;;15.70;;
253;SDS011;590;48.772;8.846;2022-12-18T04:45:18;16.33;;;15.53;;
253;SDS011;590;48.772;8.846;2022-12-18T04:47:46;16.30;;;15.50;;
253;SDS011;590;48.772;8.846;2022-12-18T04:50:15;16.40;;;15.60;;
253;SDS011;590;48.772;8.846;2022-12-18T04:52:43;16.40;;;15.60;;
253;SDS011;590;48.772;8.846;2022-12-18T04:55:11;15.50;;;14.70;;
253;SDS011;590;48.772;8.846;2022-12-18T04:57:39;14.80;;;14.00;;
253;SDS011;590;48.772;8.846;2022-12-18T05:00:08;15.87;;;15.07;;
253;SDS011;590;48.772;8.846;2022-12-18T05:02:36;16.27;;;15.47;;
253;SDS011;590;48.772;8.846;2022-12-18T05:05:05;14.90;;;14.10;;
253;SDS011;590;48.772;8.846;2022-12-18T05:07:35;16.13;;;15.33;;
253;SDS011;590;48.772;8.846;2022-12-18T05:10:04;15.30;;;14.50;;
253;SDS011;590;48.772;8.846;2022-12-18T05:12:33;15.23;;;14.43;;
253;SDS011;590;48.772;8.846;2022-12-18T05:15:21;14.77;;;14.00;;
253;SDS011;590;48.772;8.846;2022-12-18T05:17:49;14.33;;;13.63;;
253;SDS011;590;48.772;8.846;2022-12-18T05:20:17;14.73;;;13.97;;
253;SDS011;590;48.772;8.846;2022-12-18T05:22:46;14.30;;;13.60;;
253;SDS011;590;48.772;8.846;2022-12-18T05:25:15;13.43;;;12.73;;
253;SDS011;590;48.772;8.846;2022-12-18T05:27:43;13.80;;;13.10;;
253;SDS011;590;48.772;8.846;2022-12-18T05:30:11;14.13;;;13.43;;
253;SDS011;590;48.772;8.846;2022-12-18T05:32:40;13.20;;;12.50;;
253;SDS011;590;48.772;8.846;2022-12-18T05:35:09;13.20;;;12.50;;
253;SDS011;590;48.772;8.846;2022-12-18T05:37:38;13.10;;;12.40;;
253;SDS011;590;48.772;8.846;2022-12-18T05:40:11;14.33;;;13.63;;
253;SDS011;590;48.772;8.846;2022-12-18T05:42:39;13.10;;;12.40;;
253;SDS011;590;48.772;8.846;2022-12-18T05:45:07;13.43;;;12.73;;
253;SDS011;590;48.772;8.846;2022-12-18T05:47:36;14.60;;;13.90;;
253;SDS011;590;48.772;8.846;2022-12-18T05:50:04;13.27;;;12.57;;
253;SDS011;590;48.772;8.846;2022-12-18T05:52:33;12.90;;;12.20;;
253;SDS011;590;48.772;8.846;2022-12-18T05:55:01;13.40;;;12.70;;
253;SDS011;590;48.772;8.846;2022-12-18T05:57:32;13.37;;;12.67;;
253;SDS011;590;48.772;8.846;2022-12-18T06:00:00;13.13;;;12.43;;
253;SDS011;590;48.772;8.846;2022-12-18T06:02:29;13.53;;;12.83;;
253;SDS011;590;48.772;8.846;2022-12-18T06:04:57;13.40;;;12.70;;
253;SDS011;590;48.772;8.846;2022-12-18T06:07:25;12.83;;;12.13;;
253;SDS011;590;48.772;8.846;2022-12-18T06:09:53;11.13;;;10.53;;
253;SDS011;590;48.772;8.846;2022-12-18T06:12:21;12.87;;;12.17;;
253;SDS011;590;48.772;8.846;2022-12-18T06:14:50;12.20;;;11.60;;
253;SDS011;590;48.772;8.846;2022-12-18T06:17:18;12.00;;;11.40;;
253;SDS011;590;48.772;8.846;2022-12-18T06:19:46;11.83;;;11.23;;
253;SDS011;590;48.772;8.846;2022-12-18T06:22:14;11.87;;;11.27;;
253;SDS011;590;48.772;8.846;2022-12-18T06:24:43;12.10;;;11.50;;
253;SDS011;590;48.772;8.846;2022-12-18T06:27:11;11.97;;;11.37;;
253;SDS011;590;48.772;8.846;2022-12-18T06:29:39;12.07;;;11.47;;
253;SDS011;590;48.772;8.846;2022-12-18T06:32:08;12.50;;;11.90;;
253;SDS011;590;48.772;8.846;2022-12-18T06:34:37;11.73;;;11.13;;
253;SDS011;590;48.772;8.846;2022-12-18T06:37:05;11.70;;;11.10;;
253;SDS011;590;48.772;8.846;2022-12-18T06:39:33;11.37;;;10.77;;
253;SDS011;590;48.772;8.846;2022-12-18T06:42:01;12.43;;;11.83;;
253;SDS011;590;48.772;8.846;2022-12-18T06:44:30;11.43;;;10.83;;
253;SDS011;590;48.772;8.846;2022-12-18T06:46:58;12.37;;;11.73;;
253;SDS011;590;48.772;8.846;2022-12-18T06:49:27;12.90;;;12.20;;
253;SDS011;590;48.772;8.846;2022-12-18T06:51:56;12.20;;;11.60;;
253;SDS011;590;48.772;8.846;2022-12-18T06:54:24;11.77;;;11.17;;
253;SDS011;590;48.772;8.846;2022-12-18T06:56:52;11.80;;;11.20;;
253;SDS011;590;48.772;8.846;2022-12-18T06:59:20;12.73;;;12.03;;
253;SDS011;590;48.772;8.846;2022-12-18T07:01:48;11.57;;;10.97;;
253;SDS011;590;48.772;8.846;2022-12-18T07:04:16;11.87;;;11.27;;
253;SDS011;590;48.772;8.846;2022-12-18T07:06:45;11.00;;;10.40;;
253;SDS011;590;48.772;8.846;2022-12-18T07:09:13;11.87;;;11.27;;
253;SDS011;590;48.772;8.846;2022-12-18T07:11:41;11.17;;;10.57;;
253;SDS011;590;48.772;8.846;2022-12-18T07:14:09;11.40;;;10.80;;
253;SDS011;590;48.772;8.846;2022-12-18T07:16:37;10.90;;;10.30;;
253;SDS011;590;48.772;8.846;2022-12-18T07:19:05;11.90;;;11.30;;
253;SDS011;590;48.772;8.846;2022-12-18T07:21:33;12.00;;;11.40;;
253;SDS011;590;48.772;8.846;2022-12-18T07:24:03;10.90;;;10.30;;
253;SDS011;590;48.772;8.846;2022-12-18T07:26:32;11.50;;;10.90;;
253;SDS011;590;48.772;8.846;2022-12-18T07:29:00;12.07;;;11.47;;
253;SDS011;590;48.772;8.846;2022-12-18T07:31:28;11.87;;;11.27;;
253;SDS011;590;48.772;8.846;2022-12-18T07:33:56;12.27;;;11.67;;
253;SDS011;590;48.772;8.846;2022-12-18T07:36:24;11.70;;;11.10;;
253;SDS011;590;48.772;8.846;2022-12-18T07:38:52;12.33;;;11.73;;
253;SDS011;590;48.772;8.846;2022-12-18T07:41:22;10.40;;;9.90;;
253;SDS011;590;48.772;8.846;2022-12-18T07:43:50;11.00;;;10.40;;
253;SDS011;590;48.772;8.846;2022-12-18T07:46:18;10.33;;;9.80;;
253;SDS011;590;48.772;8.846;2022-12-18T07:48:46;11.33;;;10.73;;
253;SDS011;590;48.772;8.846;2022-12-18T07:51:16;11.90;;;11.30;;
253;SDS011;590;48.772;8.846;2022-12-18T07:53:45;10.40;;;9.87;;
253;SDS011;590;48.772;8.846;2022-12-18T07:56:17;11.60;;;11.00;;
253;SDS011;590;48.772;8.846;2022-12-18T07:58:56;11.00;;;10.40;;
253;SDS011;590;48.772;8.846;2022-12-18T08:01:25;11.40;;;10.80;;
253;SDS011;590;48.772;8.846;2022-12-18T08:03:54;11.43;;;10.83;;
253;SDS011;590;48.772;8.846;2022-12-18T08:06:22;10.80;;;10.20;;
253;SDS011;590;48.772;8.846;2022-12-18T08:08:51;11.10;;;10.50;;
253;SDS011;590;48.772;8.846;2022-12-18T08:11:20;11.13;;;10.53;;
253;SDS011;590;48.772;8.846;2022-12-18T08:13:48;11.30;;;10.70;;
253;SDS011;590;48.772;8.846;2022-12-18T08:16:18;11.20;;;10.60;;
253;SDS011;590;48.772;8.846;2022-12-18T08:18:47;12.00;;;11.40;;
253;SDS011;590;48.772;8.846;2022-12-18T08:21:17;12.63;;;11.97;;
253;SDS011;590;48.772;8.846;2022-12-18T08:23:49;11.83;;;11.23;;
253;SDS011;590;48.772;8.846;2022-12-18T08:26:18;11.17;;;10.57;;
253;SDS011;590;48.772;8.846;2022-12-18T08:28:47;11.83;;;11.23;;
253;SDS011;590;48.772;8.846;2022-12-18T08:31:17;12.47;;;11.87;;
253;SDS011;590;48.772;8.846;2022-12-18T08:33:47;12.30;;;11.70;;
253;SDS011;590;48.772;8.846;2022-12-18T08:36:16;11.67;;;11.07;;
253;SDS011;590;48.772;8.846;2022-12-18T08:38:45;12.90;;;12.20;;
253;SDS011;590;48.772;8.846;2022-12-18T08:41:14;12.77;;;12.07;;
253;SDS011;590;48.772;8.846;2022-12-18T08:43:43;11.83;;;11.23;;
253;SDS011;590;48.772;8.846;2022-12-18T08:46:32;12.40;;;11.80;;
253;SDS011;590;48.772;8.846;2022-12-18T08:49:03;12.03;;;11.43;;
253;SDS011;590;48.772;8.846;2022-12-18T08:51:31;12.30;;;11.70;;
253;SDS011;590;48.772;8.846;2022-12-18T08:54:00;13.03;;;12.33;;
253;SDS011;590;48.772;8.846;2022-12-18T08:56:30;13.73;;;13.03;;
253;SDS011;590;48.772;8.846;2022-12-18T08:58:58;14.23;;;13.53;;
253;SDS011;590;48.772;8.846;2022-12-18T09:01:26;12.70;;;12.00;;
253;SDS011;590;48.772;8.846;2022-12-18T09:03:56;12.20;;;11.60;;
253;SDS011;590;48.772;8.846;2022-12-18T09:06:24;11.83;;;11.23;;
253;SDS011;590;48.772;8.846;2022-12-18T09:08:52;11.73;;;11.13;;
253;SDS011;590;48.772;8.846;2022-12-18T09:11:21;12.90;;;12.20;;
253;SDS011;590;48.772;8.846;2022-12-18T09:13:51;12.87;;;12.17;;
253;SDS011;590;48.772;8.846;2022-12-18T09:16:21;13.27;;;12.57;;
253;SDS011;590;48.772;8.846;2022-12-18T09:18:58;13.03;;;12.33;;
253;SDS011;590;48.772;8.846;2022-12-18T09:21:28;11.93;;;11.33;;
253;SDS011;590;48.772;8.846;2022-12-18T09:24:01;12.53;;;11.90;;
253;SDS011;590;48.772;8.846;2022-12-18T09:26:30;12.83;;;12.13;;
253;SDS011;590;48.772;8.846;2022-12-18T09:28:58;12.97;;;12.27;;
253;SDS011;590;48.772;8.846;2022-12-18T09:31:26;12.77;;;12.07;;
253;SDS011;590;48.772;8.846;2022-12-18T09:33:54;12.23;;;11.63;;
253;SDS011;590;48.772;8.846;2022-12-18T09:36:24;12.47;;;11.83;;
253;SDS011;590;48.772;8.846;2022-12-18T09:38:52;11.90;;;11.30;;
253;SDS011;590;48.772;8.846;2022-12-18T09:41:26;11.97;;;11.37;;
253;SDS011;590;48.772;8.846;2022-12-18T09:44:04;12.80;;;12.10;;
253;SDS011;590;48.772;8.846;2022-12-18T09:46:39;13.07;;;12.37;;
253;SDS011;590;48.772;8.846;2022-12-18T09:49:13;13.40;;;12.70;;
253;SDS011;590;48.772;8.846;2022-12-18T09:51:47;12.63;;;11.97;;
253;SDS011;590;48.772;8.846;2022-12-18T09:54:20;12.83;;;12.13;;
253;SDS011;590;48.772;8.846;2022-12-18T09:56:52;13.10;;;12.40;;
253;SDS011;590;48.772;8.846;2022-12-18T09:59:22;12.27;;;11.67;;
253;SDS011;590;48.772;8.846;2022-12-18T10:01:53;13.50;;;12.80;;
253;SDS011;590;48.772;8.846;2022-12-18T10:04:21;11.63;;;11.03;;
253;SDS011;590;48.772;8.846;2022-12-18T10:06:54;10.70;;;10.10;;
253;SDS011;590;48.772;8.846;2022-12-18T10:09:37;12.30;;;11.70;;
253;SDS011;590;48.772;8.846;2022-12-18T10:12:12;12.30;;;11.70;;
253;SDS011;590;48.772;8.846;2022-12-18T10:15:00;12.00;;;11.40;;
253;SDS011;590;48.772;8.846;2022-12-18T10:17:35;11.83;;;11.23;;
253;SDS011;590;48.772;8.846;2022-12-18T10:20:10;10.83;;;10.23;;
253;SDS011;590;48.772;8.846;2022-12-18T10:22:50;10.83;;;10.23;;
253;SDS011;590;48.772;8.846;2022-12-18T10:25:25;11.53;;;10.93;;
253;SDS011;590;48.772;8.846;2022-12-18T10:27:57;11.00;;;10.40;;
253;SDS011;590;48.772;8.846;2022-12-18T10:30:34;10.80;;;10.20;;
253;SDS011;590;48.772;8.846;2022-12-18T10:33:02;11.20;;;10.60;;
253;SDS011;590;48.772;8.846;2022-12-18T10:35:31;10.73;;;10.13;;
253;SDS011;590;48.772;8.846;2022-12-18T10:38:01;12.03;;;11.43;;
253;SDS011;590;48.772;8.846;2022-12-18T10:40:31;11.07;;;10.47;;
253;SDS011;590;48.772;8.846;2022-12-18T10:43:03;11.63;;;11.03;;
253;SDS011;590;48.772;8.846;2022-12-18T10:45:32;11.03;;;10.43;;
253;SDS011;590;48.772;8.846;2022-12-18T10:48:01;12.57;;;11.37;;
253;SDS011;590;48.772;8.846;2022-12-18T10:50:31;11.23;;;10.63;;
253;SDS011;590;48.772;8.846;2022-12-18T10:53:23;10.10;;;9.60;;
253;SDS011;590;48.772;8.846;2022-12-18T10:55:53;11.23;;;10.63;;
253;SDS011;590;48.772;8.846;2022-12-18T10:58:23;10.70;;;10.10;;
253;SDS011;590;48.772;8.846;2022-12-18T11:01:06;11.20;;;10.60;;
253;SDS011;590;48.772;8.846;2022-12-18T11:03:37;10.13;;;9.63;;
253;SDS011;590;48.772;8.846;2022-12-18T11:06:07;10.03;;;9.53;;
253;SDS011;590;48.772;8.846;2022-12-18T11:08:38;10.40;;;9.90;;
253;SDS011;590;48.772;8.846;2022-12-18T11:11:14;9.33;;;8.83;;
253;SDS011;590;48.772;8.846;2022-12-18T11:13:49;10.37;;;9.83;;
253;SDS011;590;48.772;8.846;2022-12-18T11:16:26;11.23;;;10.63;;
253;SDS011;590;48.772;8.846;2022-12-18T11:19:07;11.50;;;10.90;;
253;SDS011;590;48.772;8.846;2022-12-18T11:21:40;10.63;;;10.03;;
253;SDS011;590;48.772;8.846;2022-12-18T11:24:17;11.30;;;10.70;;
253;SDS011;590;48.772;8.846;2022-12-18T11:26:48;11.67;;;11.07;;
253;SDS011;590;48.772;8.846;2022-12-18T11:29:27;10.40;;;9.90;;
253;SDS011;590;48.772;8.846;2022-12-18T11:34:55;11.50;;;10.90;;
253;SDS011;590;48.772;8.846;2022-12-18T11:37:28;10.60;;;10.00;;
253;SDS011;590;48.772;8.846;2022-12-18T11:40:01;11.87;;;11.27;;
253;SDS011;590;48.772;8.846;2022-12-18T11:42:34;10.53;;;9.97;;
253;SDS011;590;48.772;8.846;2022-12-18T11:45:18;11.43;;;10.83;;
253;SDS011;590;48.772;8.846;2022-12-18T11:47:52;10.90;;;10.30;;
253;SDS011;590;48.772;8.846;2022-12-18T11:50:26;11.07;;;10.47;;
253;SDS011;590;48.772;8.846;2022-12-18T11:52:58;11.17;;;10.57;;
253;SDS011;590;48.772;8.846;2022-12-18T11:55:36;9.97;;;9.47;;
253;SDS011;590;48.772;8.846;2022-12-18T11:58:11;10.07;;;9.57;;
253;SDS011;590;48.772;8.846;2022-12-18T12:00:46;10.07;;;9.60;;
253;SDS011;590;48.772;8.846;2022-12-18T12:06:24;10.07;;;9.57;;
253;SDS011;590;48.772;8.846;2022-12-18T12:09:04;10.83;;;10.23;;
253;SDS011;590;48.772;8.846;2022-12-18T12:11:44;11.10;;;10.50;;
253;SDS011;590;48.772;8.846;2022-12-18T12:14:26;10.80;;;10.20;;
253;SDS011;590;48.772;8.846;2022-12-18T12:17:03;10.10;;;9.60;;
253;SDS011;590;48.772;8.846;2022-12-18T12:19:41;11.13;;;10.53;;
253;SDS011;590;48.772;8.846;2022-12-18T12:22:19;10.83;;;10.23;;
253;SDS011;590;48.772;8.846;2022-12-18T12:24:59;10.37;;;9.83;;
253;SDS011;590;48.772;8.846;2022-12-18T12:27:39;11.13;;;10.53;;
253;SDS011;590;48.772;8.846;2022-12-18T12:30:17;10.33;;;9.83;;
253;SDS011;590;48.772;8.846;2022-12-18T12:32:50;11.20;;;10.60;;
253;SDS011;590;48.772;8.846;2022-12-18T12:35:30;11.40;;;10.80;;
253;SDS011;590;48.772;8.846;2022-12-18T12:38:08;12.43;;;11.83;;
253;SDS011;590;48.772;8.846;2022-12-18T12:40:39;11.07;;;10.47;;
253;SDS011;590;48.772;8.846;2022-12-18T12:43:24;13.63;;;12.93;;
253;SDS011;590;48.772;8.846;2022-12-18T12:45:57;13.30;;;11.77;;
253;SDS011;590;48.772;8.846;2022-12-18T12:48:32;12.77;;;12.07;;
253;SDS011;590;48.772;8.846;2022-12-18T12:51:09;13.20;;;12.53;;
253;SDS011;590;48.772;8.846;2022-12-18T12:53:40;11.90;;;11.30;;
253;SDS011;590;48.772;8.846;2022-12-18T12:56:10;13.13;;;12.43;;
253;SDS011;590;48.772;8.846;2022-12-18T12:58:49;12.77;;;12.07;;
253;SDS011;590;48.772;8.846;2022-12-18T13:01:26;13.13;;;12.43;;
253;SDS011;590;48.772;8.846;2022-12-18T13:04:02;12.43;;;11.83;;
253;SDS011;590;48.772;8.846;2022-12-18T13:06:42;11.60;;;11.00;;
253;SDS011;590;48.772;8.846;2022-12-18T13:09:15;12.40;;;11.80;;
253;SDS011;590;48.772;8.846;2022-12-18T13:11:44;13.03;;;12.33;;
253;SDS011;590;48.772;8.846;2022-12-18T13:14:34;14.20;;;13.30;;
253;SDS011;590;48.772;8.846;2022-12-18T13:20:08;13.47;;;12.77;;
253;SDS011;590;48.772;8.846;2022-12-18T13:22:40;12.53;;;11.90;;
253;SDS011;590;48.772;8.846;2022-12-18T13:25:30;13.40;;;12.70;;
253;SDS011;590;48.772;8.846;2022-12-18T13:28:04;12.83;;;12.07;;
253;SDS011;590;48.772;8.846;2022-12-18T13:30:47;13.50;;;12.80;;
253;SDS011;590;48.772;8.846;2022-12-18T13:36:35;12.30;;;11.70;;
253;SDS011;590;48.772;8.846;2022-12-18T13:45:35;12.83;;;12.13;;
253;SDS011;590;48.772;8.846;2022-12-18T13:48:23;12.80;;;12.10;;
253;SDS011;590;48.772;8.846;2022-12-18T13:50:55;13.37;;;12.67;;
253;SDS011;590;48.772;8.846;2022-12-18T13:53:27;13.10;;;12.40;;
253;SDS011;590;48.772;8.846;2022-12-18T13:55:59;14.10;;;13.40;;
253;SDS011;590;48.772;8.846;2022-12-18T13:58:29;12.63;;;11.97;;
253;SDS011;590;48.772;8.846;2022-12-18T14:00:58;12.20;;;11.60;;
253;SDS011;590;48.772;8.846;2022-12-18T14:03:29;12.10;;;11.50;;
253;SDS011;590;48.772;8.846;2022-12-18T14:06:01;13.83;;;13.13;;
253;SDS011;590;48.772;8.846;2022-12-18T14:08:34;13.07;;;12.37;;
253;SDS011;590;48.772;8.846;2022-12-18T14:11:06;13.83;;;13.13;;
253;SDS011;590;48.772;8.846;2022-12-18T14:13:47;14.63;;;13.53;;
253;SDS011;590;48.772;8.846;2022-12-18T14:16:18;13.43;;;12.80;;
253;SDS011;590;48.772;8.846;2022-12-18T14:18:46;14.63;;;13.60;;
253;SDS011;590;48.772;8.846;2022-12-18T14:21:23;12.63;;;11.97;;
253;SDS011;590;48.772;8.846;2022-12-18T14:26:45;12.40;;;11.27;;
253;SDS011;590;48.772;8.846;2022-12-18T14:29:22;13.70;;;13.00;;
253;SDS011;590;48.772;8.846;2022-12-18T14:34:44;13.07;;;12.37;;
253;SDS011;590;48.772;8.846;2022-12-18T14:37:14;13.07;;;12.37;;
253;SDS011;590;48.772;8.846;2022-12-18T14:39:53;12.33;;;11.73;;
253;SDS011;590;48.772;8.846;2022-12-18T14:42:23;13.63;;;12.93;;
253;SDS011;590;48.772;8.846;2022-12-18T14:48:12;12.20;;;11.60;;
253;SDS011;590;48.772;8.846;2022-12-18T14:50:56;13.80;;;12.57;;
253;SDS011;590;48.772;8.846;2022-12-18T14:53:29;12.97;;;12.27;;
253;SDS011;590;48.772;8.846;2022-12-18T14:56:01;12.93;;;12.23;;
253;SDS011;590;48.772;8.846;2022-12-18T14:58:30;13.27;;;12.57;;
253;SDS011;590;48.772;8.846;2022-12-18T15:00:58;12.90;;;12.20;;
253;SDS011;590;48.772;8.846;2022-12-18T15:03:27;12.50;;;11.80;;
253;SDS011;590;48.772;8.846;2022-12-18T15:05:55;13.07;;;12.37;;
253;SDS011;590;48.772;8.846;2022-12-18T15:08:42;12.27;;;11.67;;
253;SDS011;590;48.772;8.846;2022-12-18T15:11:24;13.10;;;12.40;;
253;SDS011;590;48.772;8.846;2022-12-18T15:13:53;13.00;;;12.30;;
253;SDS011;590;48.772;8.846;2022-12-18T15:16:22;12.50;;;11.90;;
253;SDS011;590;48.772;8.846;2022-12-18T15:18:51;12.10;;;11.50;;
253;SDS011;590;48.772;8.846;2022-12-18T15:21:21;12.13;;;11.53;;
253;SDS011;590;48.772;8.846;2022-12-18T15:23:49;12.67;;;12.00;;
253;SDS011;590;48.772;8.846;2022-12-18T15:26:19;13.50;;;12.80;;
253;SDS011;590;48.772;8.846;2022-12-18T15:28:49;11.50;;;10.90;;
253;SDS011;590;48.772;8.846;2022-12-18T15:31:23;11.83;;;11.23;;
253;SDS011;590;48.772;8.846;2022-12-18T15:34:13;9.90;;;9.40;;
253;SDS011;590;48.772;8.846;2022-12-18T15:36:47;13.83;;;13.13;;
253;SDS011;590;48.772;8.846;2022-12-18T15:39:17;11.43;;;10.83;;
253;SDS011;590;48.772;8.846;2022-12-18T15:41:45;11.43;;;10.83;;
253;SDS011;590;48.772;8.846;2022-12-18T15:44:28;11.77;;;11.17;;
253;SDS011;590;48.772;8.846;2022-12-18T15:46:56;11.17;;;10.57;;
253;SDS011;590;48.772;8.846;2022-12-18T15:49:25;12.80;;;12.10;;
253;SDS011;590;48.772;8.846;2022-12-18T15:51:54;11.70;;;11.10;;
253;SDS011;590;48.772;8.846;2022-12-18T15:54:25;11.57;;;10.97;;
253;SDS011;590;48.772;8.846;2022-12-18T15:57:11;11.00;;;10.40;;
253;SDS011;590;48.772;8.846;2022-12-18T15:59:52;11.90;;;11.30;;
253;SDS011;590;48.772;8.846;2022-12-18T16:02:22;11.70;;;11.10;;
253;SDS011;590;48.772;8.846;2022-12-18T16:04:52;11.30;;;10.70;;
253;SDS011;590;48.772;8.846;2022-12-18T16:07:22;12.00;;;11.40;;
253;SDS011;590;48.772;8.846;2022-12-18T16:09:54;11.77;;;11.17;;
253;SDS011;590;48.772;8.846;2022-12-18T16:12:24;12.10;;;11.50;;
253;SDS011;590;48.772;8.846;2022-12-18T16:14:52;11.77;;;11.17;;